Time;durP1;ratioP1;P1;durP2;ratioP2;P2;SDS_P1;SDS_P2;PMS_P1;PMS_P2;Temp;Humidity;BMP_temperature;BMP_pressure;BME280_temperature;BME280_humidity;BME280_pressure;Samples;Min_cycle;Max_cycle;Signal;HPM_P1;HPM_P2
2023/03/22 00:00:54;;;;;;;28.45;15.80;;;11.10;99.90;;;;;;4864817;29;20385;-71
2023/03/22 00:03:21;;;;;;;30.80;16.17;;;11.20;99.90;;;;;;4864675;29;20124;-70
2023/03/22 00:05:47;;;;;;;28.15;16.73;;;11.20;99.90;;;;;;4864719;29;20041;-70
2023/03/22 00:08:13;;;;;;;27.10;16.02;;;11.20;99.90;;;;;;4848026;29;20392;-70
2023/03/22 00:10:41;;;;;;;25.98;15.05;;;11.30;99.90;;;;;;4864647;29;20079;-71
2023/03/22 00:13:09;;;;;;;24.40;14.00;;;11.20;99.90;;;;;;4864762;29;20375;-71
2023/03/22 00:15:35;;;;;;;30.17;14.70;;;11.10;99.90;;;;;;4901349;29;20045;-70
2023/03/22 00:18:02;;;;;;;23.77;13.60;;;11.10;99.90;;;;;;4901399;29;20048;-70
2023/03/22 00:20:35;;;;;;;25.15;14.25;;;11.10;99.90;;;;;;4901777;29;20044;-71
2023/03/22 00:23:01;;;;;;;25.88;13.10;;;11.20;99.90;;;;;;4885986;29;20045;-71
2023/03/22 00:25:27;;;;;;;27.27;13.88;;;11.20;99.90;;;;;;4901690;29;20105;-71
2023/03/22 00:27:53;;;;;;;21.50;13.07;;;11.30;99.90;;;;;;4901464;29;20459;-70
2023/03/22 00:30:18;;;;;;;26.20;13.60;;;11.30;99.90;;;;;;4901616;29;20115;-70
2023/03/22 00:32:44;;;;;;;21.25;12.43;;;11.30;99.90;;;;;;4901656;29;20335;-71
2023/03/22 00:35:11;;;;;;;22.27;12.93;;;11.30;99.90;;;;;;4901523;29;20041;-70
2023/03/22 00:37:37;;;;;;;26.15;12.90;;;11.20;99.90;;;;;;4901604;29;20041;-70
2023/03/22 00:40:09;;;;;;;26.48;12.57;;;11.30;99.90;;;;;;4901577;29;20124;-70
2023/03/22 00:42:36;;;;;;;27.88;11.98;;;11.20;99.90;;;;;;4901049;29;20056;-71
2023/03/22 00:45:03;;;;;;;20.40;11.23;;;11.20;99.90;;;;;;4884784;29;20064;-70
2023/03/22 00:47:29;;;;;;;23.58;10.95;;;11.30;99.90;;;;;;4901479;29;20045;-70
2023/03/22 00:49:55;;;;;;;20.60;11.05;;;11.30;99.90;;;;;;4885043;29;20124;-70
2023/03/22 00:52:20;;;;;;;21.50;11.18;;;11.20;99.90;;;;;;4901216;29;20052;-71
2023/03/22 00:54:46;;;;;;;22.80;10.57;;;11.30;99.90;;;;;;4901379;29;20335;-71
2023/03/22 00:57:13;;;;;;;18.05;9.43;;;11.30;99.90;;;;;;4884612;29;20339;-70
2023/03/22 00:59:41;;;;;;;17.42;10.15;;;11.20;99.90;;;;;;4901158;29;20115;-71
2023/03/22 01:02:08;;;;;;;20.55;10.02;;;11.30;99.90;;;;;;4901378;29;20353;-70
2023/03/22 01:04:34;;;;;;;20.45;9.93;;;11.30;99.90;;;;;;4901380;29;20055;-70
2023/03/22 01:07:04;;;;;;;19.58;8.82;;;11.30;99.90;;;;;;4901382;29;20252;-71
2023/03/22 01:09:32;;;;;;;23.08;9.75;;;11.40;99.90;;;;;;4901383;29;20072;-71
2023/03/22 01:11:59;;;;;;;18.27;9.02;;;11.30;99.90;;;;;;4900928;29;20054;-71
2023/03/22 01:14:25;;;;;;;17.52;8.93;;;11.20;99.90;;;;;;4901239;29;20136;-71
2023/03/22 01:16:56;;;;;;;18.85;8.60;;;11.30;99.90;;;;;;4904463;29;20384;-71
2023/03/22 01:19:22;;;;;;;18.90;8.60;;;11.30;99.90;;;;;;4904993;29;20327;-71
2023/03/22 01:21:49;;;;;;;15.13;8.65;;;11.30;99.90;;;;;;4904879;29;20105;-71
2023/03/22 01:24:15;;;;;;;14.20;8.10;;;11.40;99.90;;;;;;4904666;29;20052;-71
2023/03/22 01:26:41;;;;;;;19.95;9.10;;;11.30;99.90;;;;;;4904788;29;20060;-70
2023/03/22 01:29:07;;;;;;;18.27;9.43;;;11.30;99.90;;;;;;4904782;29;20040;-70
2023/03/22 01:31:33;;;;;;;18.02;8.18;;;11.30;99.90;;;;;;4904711;29;20127;-71
2023/03/22 01:33:59;;;;;;;16.48;7.90;;;11.30;99.90;;;;;;4904557;29;20124;-71
2023/03/22 01:36:25;;;;;;;17.38;8.18;;;11.40;99.90;;;;;;4904667;29;20037;-71
2023/03/22 01:38:50;;;;;;;21.67;7.85;;;11.40;99.90;;;;;;4904401;29;20048;-71
2023/03/22 01:41:17;;;;;;;22.48;7.35;;;11.40;99.90;;;;;;4904485;29;20041;-71
2023/03/22 01:43:42;;;;;;;18.77;7.00;;;11.30;99.90;;;;;;4903959;29;20058;-71
2023/03/22 01:46:08;;;;;;;13.13;6.28;;;11.20;99.90;;;;;;4904246;29;20045;-71
2023/03/22 01:48:44;;;;;;;17.60;6.00;;;11.30;99.90;;;;;;4904154;29;20063;-70
2023/03/22 01:51:13;;;;;;;15.50;5.85;;;11.10;99.90;;;;;;4904455;29;20327;-71
2023/03/22 01:53:44;;;;;;;15.93;5.85;;;11.00;99.90;;;;;;4904250;29;20088;-71
2023/03/22 01:56:11;;;;;;;14.98;5.25;;;11.10;99.90;;;;;;4887661;29;20072;-71
2023/03/22 01:58:38;;;;;;;12.40;4.88;;;11.10;99.90;;;;;;4904302;29;20040;-71
2023/03/22 02:01:06;;;;;;;12.85;5.18;;;11.10;99.90;;;;;;4903905;29;20479;-70
2023/03/22 02:03:53;;;;;;;10.93;4.72;;;11.00;99.90;;;;;;4904135;29;20169;-71
2023/03/22 02:06:20;;;;;;;17.23;5.72;;;11.00;99.90;;;;;;4903804;29;20162;-71
2023/03/22 02:08:45;;;;;;;14.77;4.40;;;11.20;99.90;;;;;;4887146;29;20044;-70
2023/03/22 02:11:27;;;;;;;17.90;5.00;;;11.20;99.90;;;;;;4903967;29;20051;-71
2023/03/22 02:14:14;;;;;;;10.13;4.70;;;11.20;99.90;;;;;;4903664;29;20119;-71
2023/03/22 02:17:16;;;;;;;9.98;3.95;;;11.20;99.90;;;;;;4904018;29;20041;-71
2023/03/22 02:20:09;;;;;;;13.77;3.80;;;11.10;99.90;;;;;;4903624;29;20130;-71
2023/03/22 02:23:02;;;;;;;14.50;4.03;;;11.20;99.90;;;;;;4903555;29;20499;-72
2023/03/22 02:25:49;;;;;;;6.85;3.20;;;11.20;99.90;;;;;;4903788;29;20123;-71
2023/03/22 02:28:53;;;;;;;11.07;3.50;;;11.20;99.90;;;;;;4903926;29;20041;-71
2023/03/22 02:31:37;;;;;;;9.68;3.00;;;11.20;99.90;;;;;;4881836;29;20406;-71
2023/03/22 02:34:18;;;;;;;14.85;2.97;;;11.10;99.90;;;;;;4903554;29;20379;-71
2023/03/22 02:37:11;;;;;;;11.07;3.33;;;11.10;99.90;;;;;;4903643;29;20068;-71
2023/03/22 02:39:50;;;;;;;12.63;3.45;;;11.10;99.90;;;;;;4903556;29;20100;-71
2023/03/22 02:42:33;;;;;;;7.88;3.20;;;11.20;99.90;;;;;;4903176;29;20037;-70
2023/03/22 02:45:12;;;;;;;9.57;2.90;;;11.10;99.90;;;;;;4903232;29;20183;-70
2023/03/22 02:47:53;;;;;;;9.95;2.65;;;11.20;99.90;;;;;;4886519;29;20041;-70
2023/03/22 02:50:32;;;;;;;11.23;3.10;;;11.10;99.90;;;;;;4903359;29;20131;-70
2023/03/22 02:53:16;;;;;;;9.48;2.88;;;11.00;99.90;;;;;;4903003;29;20045;-70
2023/03/22 02:56:02;;;;;;;15.18;3.08;;;11.00;99.90;;;;;;4903103;29;20156;-70
2023/03/22 02:58:36;;;;;;;9.52;2.67;;;10.90;99.90;;;;;;4903303;29;20375;-70
2023/03/22 03:01:07;;;;;;;10.27;2.85;;;10.90;99.90;;;;;;4903133;29;20048;-70
2023/03/22 03:03:36;;;;;;;13.50;4.05;;;11.00;99.90;;;;;;4903151;29;20071;-70
2023/03/22 03:06:12;;;;;;;10.43;3.95;;;11.10;99.90;;;;;;4903051;29;20086;-71
2023/03/22 03:08:39;;;;;;;13.60;3.30;;;11.20;99.90;;;;;;4903101;29;20446;-70
2023/03/22 03:11:05;;;;;;;11.70;3.25;;;11.00;99.90;;;;;;4902935;29;20040;-70
2023/03/22 03:13:31;;;;;;;8.18;3.17;;;11.00;99.90;;;;;;4902496;29;20052;-70
2023/03/22 03:16:00;;;;;;;14.32;3.00;;;11.00;99.90;;;;;;4902870;29;20036;-70
2023/03/22 03:18:25;;;;;;;12.23;3.47;;;10.90;99.90;;;;;;4902589;29;20045;-70
2023/03/22 03:21:16;;;;;;;14.07;3.30;;;11.00;99.90;;;;;;4902769;29;20048;-70
2023/03/22 03:24:03;;;;;;;12.43;3.10;;;11.10;99.90;;;;;;4885958;29;20044;-70
2023/03/22 03:26:51;;;;;;;9.80;3.25;;;11.10;99.90;;;;;;4902399;29;20056;-70
2023/03/22 03:29:40;;;;;;;12.45;3.33;;;11.30;99.90;;;;;;4902691;29;20067;-70
2023/03/22 03:32:24;;;;;;;11.55;3.10;;;11.30;99.90;;;;;;4902415;29;20439;-71
2023/03/22 03:35:05;;;;;;;12.57;3.60;;;11.30;99.90;;;;;;4902217;29;20049;-70
2023/03/22 03:37:46;;;;;;;11.27;3.28;;;11.20;99.90;;;;;;4902268;29;20398;-71
2023/03/22 03:40:29;;;;;;;14.55;3.15;;;11.20;99.90;;;;;;4902509;29;20136;-70
2023/03/22 03:42:56;;;;;;;14.68;2.60;;;11.20;99.90;;;;;;4901605;29;20060;-70
2023/03/22 03:45:23;;;;;;;13.55;2.90;;;11.10;99.90;;;;;;4902336;29;20084;-70
2023/03/22 03:47:55;;;;;;;12.07;2.95;;;11.00;99.90;;;;;;4902008;29;20045;-70
2023/03/22 03:50:24;;;;;;;15.90;3.20;;;11.10;99.90;;;;;;4902298;29;20090;-70
2023/03/22 03:52:51;;;;;;;8.88;2.60;;;11.20;99.90;;;;;;4902205;29;20058;-70
2023/03/22 03:55:17;;;;;;;12.43;3.03;;;11.00;99.90;;;;;;4902126;29;20044;-71
2023/03/22 03:57:42;;;;;;;15.18;3.35;;;11.00;99.90;;;;;;4885623;29;20079;-71
2023/03/22 04:00:09;;;;;;;12.18;2.50;;;11.00;99.90;;;;;;4901781;29;20076;-71
2023/03/22 04:02:34;;;;;;;11.10;2.88;;;11.00;99.90;;;;;;4901720;29;20044;-71
2023/03/22 04:05:00;;;;;;;13.57;2.72;;;10.90;99.90;;;;;;4902069;29;20048;-71
2023/03/22 04:07:26;;;;;;;9.38;2.28;;;10.90;99.90;;;;;;4901904;29;20044;-71
2023/03/22 04:09:51;;;;;;;9.73;2.78;;;10.90;99.90;;;;;;4901926;29;20438;-71
2023/03/22 04:12:17;;;;;;;13.15;2.50;;;11.00;99.90;;;;;;4885027;29;20368;-71
2023/03/22 04:14:43;;;;;;;9.52;2.90;;;11.00;99.90;;;;;;4901824;29;20051;-71
2023/03/22 04:17:09;;;;;;;16.63;2.80;;;11.00;99.90;;;;;;4901820;29;20429;-71
2023/03/22 04:19:35;;;;;;;10.27;2.72;;;11.00;99.90;;;;;;4901792;29;20049;-71
2023/03/22 04:22:01;;;;;;;10.50;3.00;;;11.00;99.90;;;;;;4901766;29;20346;-70
2023/03/22 04:24:26;;;;;;;11.98;2.55;;;11.10;99.90;;;;;;4901445;29;20041;-71
2023/03/22 04:26:52;;;;;;;13.65;2.75;;;11.10;99.90;;;;;;4901423;29;20077;-71
2023/03/22 04:29:18;;;;;;;10.27;2.88;;;11.00;99.90;;;;;;4885213;29;20045;-71
2023/03/22 04:31:44;;;;;;;15.70;2.72;;;11.00;99.90;;;;;;4884863;29;20334;-71
2023/03/22 04:34:09;;;;;;;12.02;2.85;;;10.90;99.90;;;;;;4901590;29;20041;-71
2023/03/22 04:36:38;;;;;;;10.00;2.90;;;11.10;99.90;;;;;;4901570;29;20041;-71
2023/03/22 04:39:10;;;;;;;12.45;3.40;;;11.20;99.90;;;;;;4901309;29;20045;-71
2023/03/22 04:41:36;;;;;;;10.63;3.50;;;11.00;99.90;;;;;;4884729;29;20091;-70
2023/03/22 04:44:03;;;;;;;16.30;3.90;;;11.10;99.90;;;;;;4900805;29;20092;-70
2023/03/22 04:46:31;;;;;;;15.25;3.90;;;10.90;99.90;;;;;;4901528;29;20054;-71
2023/03/22 04:48:57;;;;;;;12.63;4.20;;;11.00;99.90;;;;;;4901522;29;20040;-71
2023/03/22 04:51:23;;;;;;;17.38;4.88;;;11.10;99.90;;;;;;4904086;29;20051;-71
2023/03/22 04:53:49;;;;;;;12.15;4.70;;;11.10;99.90;;;;;;4905318;29;20044;-71
2023/03/22 04:56:15;;;;;;;14.20;5.07;;;11.00;99.90;;;;;;4905365;29;20104;-71
2023/03/22 04:58:42;;;;;;;12.02;4.95;;;10.90;99.90;;;;;;4905370;29;20048;-71
2023/03/22 05:01:10;;;;;;;21.00;5.65;;;11.00;99.90;;;;;;4905312;29;20044;-71
2023/03/22 05:03:36;;;;;;;14.38;5.60;;;11.20;99.90;;;;;;4905268;29;20049;-71
2023/03/22 05:06:05;;;;;;;15.75;6.72;;;11.10;99.90;;;;;;4905186;29;20052;-71
2023/03/22 05:08:32;;;;;;;16.27;6.53;;;11.20;99.90;;;;;;4905154;29;20060;-71
2023/03/22 05:11:02;;;;;;;14.70;6.95;;;11.30;99.90;;;;;;4905143;29;20041;-71
2023/03/22 05:13:28;;;;;;;14.88;7.05;;;11.10;99.90;;;;;;4904348;29;20045;-71
2023/03/22 05:15:54;;;;;;;17.85;7.45;;;11.20;99.90;;;;;;4904976;29;20052;-71
2023/03/22 05:18:23;;;;;;;18.50;7.80;;;11.10;99.90;;;;;;4905033;29;20068;-71
2023/03/22 05:20:49;;;;;;;22.45;8.95;;;11.20;99.90;;;;;;4904996;29;20040;-70
2023/03/22 05:23:18;;;;;;;21.17;8.95;;;11.20;99.90;;;;;;4904963;29;20063;-70
2023/03/22 05:25:45;;;;;;;18.92;9.10;;;11.10;99.90;;;;;;4904619;29;20427;-70
2023/03/22 05:28:13;;;;;;;17.67;8.65;;;11.30;99.90;;;;;;4904858;29;20060;-70
2023/03/22 05:30:42;;;;;;;24.05;9.43;;;11.30;99.90;;;;;;4887771;29;20048;-70
2023/03/22 05:33:08;;;;;;;20.92;9.23;;;11.20;99.90;;;;;;4904610;29;20342;-70
2023/03/22 05:35:37;;;;;;;16.38;9.13;;;11.10;99.90;;;;;;4904434;29;20044;-70
2023/03/22 05:38:03;;;;;;;23.20;9.70;;;11.10;99.90;;;;;;4904485;29;20096;-70
2023/03/22 05:40:29;;;;;;;19.85;9.93;;;11.10;99.90;;;;;;4904448;29;20047;-71
2023/03/22 05:42:55;;;;;;;19.52;9.35;;;11.00;99.90;;;;;;4883728;29;20060;-71
2023/03/22 05:45:22;;;;;;;23.83;10.40;;;11.10;99.90;;;;;;4903739;29;20064;-71
2023/03/22 05:47:48;;;;;;;22.95;10.23;;;11.20;99.90;;;;;;4904430;29;20051;-70
2023/03/22 05:50:17;;;;;;;21.67;10.95;;;11.10;99.90;;;;;;4904383;29;20077;-71
2023/03/22 05:52:44;;;;;;;17.70;10.20;;;11.00;99.90;;;;;;4904401;29;20120;-71
2023/03/22 05:55:13;;;;;;;28.40;12.25;;;11.00;99.90;;;;;;4904248;29;20045;-71
2023/03/22 05:57:40;;;;;;;25.08;11.43;;;11.10;99.90;;;;;;4904031;29;20049;-71
2023/03/22 06:00:12;;;;;;;22.13;11.20;;;11.10;99.90;;;;;;4904256;29;20040;-71
2023/03/22 06:02:39;;;;;;;25.65;11.00;;;11.10;99.90;;;;;;4903719;29;20343;-71
2023/03/22 06:05:06;;;;;;;22.05;10.90;;;11.10;99.90;;;;;;4904132;29;20049;-70
2023/03/22 06:07:31;;;;;;;24.05;11.60;;;11.10;99.90;;;;;;4904144;29;20056;-70
2023/03/22 06:09:57;;;;;;;24.13;12.00;;;10.90;99.90;;;;;;4904032;29;20063;-71
2023/03/22 06:12:24;;;;;;;23.15;12.32;;;11.10;99.90;;;;;;4903728;29;20143;-71
2023/03/22 06:14:51;;;;;;;22.98;12.55;;;11.10;99.90;;;;;;4903955;29;20056;-71
2023/03/22 06:17:17;;;;;;;24.45;11.98;;;11.20;99.90;;;;;;4903968;29;20045;-71
2023/03/22 06:19:42;;;;;;;24.02;13.15;;;11.10;99.90;;;;;;4903896;29;20044;-71
2023/03/22 06:22:08;;;;;;;21.05;12.23;;;11.30;99.90;;;;;;4903597;29;20339;-71
2023/03/22 06:24:34;;;;;;;26.13;13.07;;;11.40;99.90;;;;;;4903546;29;20048;-70
2023/03/22 06:27:00;;;;;;;20.67;12.18;;;11.50;99.90;;;;;;4903798;29;20048;-71
2023/03/22 06:29:25;;;;;;;28.60;13.00;;;11.30;99.90;;;;;;4903780;29;20057;-70
2023/03/22 06:31:51;;;;;;;29.42;12.57;;;11.30;99.90;;;;;;4903610;29;20040;-71
2023/03/22 06:34:17;;;;;;;24.25;12.40;;;11.40;99.90;;;;;;4903581;29;20124;-71
2023/03/22 06:36:43;;;;;;;26.33;12.38;;;11.40;99.90;;;;;;4903932;29;20140;-70
2023/03/22 06:39:08;;;;;;;23.80;12.27;;;11.40;99.90;;;;;;4874532;29;20041;-71
2023/03/22 06:41:34;;;;;;;20.45;11.52;;;11.40;99.90;;;;;;4866197;29;20447;-70
2023/03/22 06:44:01;;;;;;;20.98;12.50;;;11.40;99.90;;;;;;4865411;29;20148;-70
2023/03/22 06:46:27;;;;;;;31.60;12.52;;;11.50;99.90;;;;;;4866120;29;20045;-71
2023/03/22 06:48:53;;;;;;;20.98;11.75;;;11.50;99.90;;;;;;4866069;29;20447;-70
2023/03/22 06:51:19;;;;;;;27.98;12.45;;;11.40;99.90;;;;;;4865789;29;20173;-70
2023/03/22 06:53:45;;;;;;;22.17;11.75;;;11.40;99.90;;;;;;4865886;29;20056;-70
2023/03/22 06:56:11;;;;;;;22.77;11.40;;;11.30;99.90;;;;;;4849321;29;20053;-70
2023/03/22 06:58:36;;;;;;;22.05;12.27;;;11.30;99.90;;;;;;4849234;29;20056;-70
2023/03/22 07:01:02;;;;;;;22.63;12.02;;;11.30;99.90;;;;;;4849533;29;20063;-70
2023/03/22 07:03:28;;;;;;;18.13;11.25;;;11.40;99.90;;;;;;4865832;29;20097;-70
2023/03/22 07:06:03;;;;;;;22.60;10.93;;;11.50;99.90;;;;;;4865771;29;20420;-70
2023/03/22 07:08:29;;;;;;;21.45;11.77;;;11.40;99.90;;;;;;4865849;29;20124;-70
2023/03/22 07:10:54;;;;;;;27.35;12.40;;;11.50;99.90;;;;;;4865693;29;20073;-70
2023/03/22 07:13:20;;;;;;;24.83;13.52;;;11.50;99.90;;;;;;4864455;29;20042;-70
2023/03/22 07:15:46;;;;;;;25.17;12.30;;;11.70;99.90;;;;;;4865206;29;20046;-70
2023/03/22 07:18:12;;;;;;;22.85;12.48;;;11.90;99.90;;;;;;4849138;29;20424;-70
2023/03/22 07:20:40;;;;;;;20.27;11.13;;;11.80;99.90;;;;;;4865499;29;20042;-70
2023/03/22 07:23:08;;;;;;;21.20;10.93;;;11.70;99.90;;;;;;4865183;29;20045;-69
2023/03/22 07:25:34;;;;;;;20.83;12.48;;;11.70;99.90;;;;;;4879549;29;20344;-70
2023/03/22 07:28:00;;;;;;;23.00;11.70;;;11.60;99.90;;;;;;4848966;29;20053;-70
2023/03/22 07:30:25;;;;;;;23.23;12.52;;;11.70;99.90;;;;;;4865045;29;20053;-70
2023/03/22 07:32:51;;;;;;;20.70;12.07;;;11.80;99.90;;;;;;4864973;29;20049;-70
2023/03/22 07:35:17;;;;;;;24.67;11.40;;;11.80;99.90;;;;;;4865275;29;20101;-69
2023/03/22 07:37:44;;;;;;;23.90;10.95;;;11.90;99.90;;;;;;4865257;29;20045;-67
2023/03/22 07:40:11;;;;;;;19.20;10.40;;;11.80;99.90;;;;;;4865184;29;20088;-66
2023/03/22 07:42:36;;;;;;;19.00;10.73;;;11.90;99.90;;;;;;4864952;29;20069;-68
2023/03/22 07:45:03;;;;;;;19.50;10.52;;;11.80;99.90;;;;;;4864680;29;20452;-67
2023/03/22 07:47:29;;;;;;;19.40;11.10;;;12.00;99.90;;;;;;4865273;29;20382;-67
2023/03/22 07:49:55;;;;;;;18.63;10.18;;;11.80;99.90;;;;;;4864991;29;20365;-66
2023/03/22 07:52:21;;;;;;;25.55;10.65;;;11.80;99.90;;;;;;4864978;29;20069;-67
2023/03/22 07:54:46;;;;;;;18.35;10.40;;;11.80;99.90;;;;;;4864827;29;20049;-66
2023/03/22 07:57:12;;;;;;;23.55;9.77;;;11.80;99.90;;;;;;4864620;29;20042;-66
2023/03/22 07:59:38;;;;;;;20.17;10.20;;;11.80;99.90;;;;;;4864793;29;20083;-67
2023/03/22 08:02:03;;;;;;;18.77;9.52;;;11.80;99.90;;;;;;4864828;29;20045;-66
2023/03/22 08:04:29;;;;;;;22.63;9.18;;;11.80;99.90;;;;;;4864514;29;20045;-67
2023/03/22 08:06:57;;;;;;;18.83;8.10;;;11.80;99.90;;;;;;4864788;29;20049;-65
2023/03/22 08:09:24;;;;;;;21.10;9.10;;;11.80;99.90;;;;;;4864718;29;20064;-66
2023/03/22 08:11:50;;;;;;;19.75;8.55;;;12.10;99.90;;;;;;4864475;29;20128;-65
2023/03/22 08:14:16;;;;;;;16.70;8.82;;;12.20;99.90;;;;;;4864198;29;20050;-66
2023/03/22 08:16:43;;;;;;;18.35;8.30;;;12.30;99.90;;;;;;4864337;29;20044;-66
2023/03/22 08:19:12;;;;;;;16.00;8.05;;;12.40;99.90;;;;;;4864627;29;20064;-66
2023/03/22 08:21:38;;;;;;;17.90;7.90;;;12.40;99.90;;;;;;4864576;29;20038;-67
2023/03/22 08:24:04;;;;;;;18.23;8.55;;;12.40;99.90;;;;;;4864390;29;20468;-67
2023/03/22 08:26:29;;;;;;;14.88;7.60;;;12.20;99.90;;;;;;4864277;29;20117;-67
2023/03/22 08:28:56;;;;;;;13.75;7.53;;;12.10;99.90;;;;;;4864458;29;20120;-67
2023/03/22 08:31:22;;;;;;;18.20;7.85;;;12.10;99.90;;;;;;4864431;29;20340;-67
2023/03/22 08:33:49;;;;;;;14.48;7.25;;;12.20;99.90;;;;;;4864066;29;20034;-66
2023/03/22 08:36:18;;;;;;;16.55;7.45;;;12.10;99.90;;;;;;4864374;29;20088;-67
2023/03/22 08:38:44;;;;;;;18.75;8.10;;;12.20;99.90;;;;;;4864406;29;20041;-67
2023/03/22 08:41:11;;;;;;;17.90;7.07;;;12.30;99.90;;;;;;4847926;29;20446;-67
2023/03/22 08:43:36;;;;;;;15.50;6.57;;;12.40;99.90;;;;;;4859785;29;20054;-67
2023/03/22 08:46:02;;;;;;;18.00;5.93;;;12.30;99.90;;;;;;4864293;29;20053;-67
2023/03/22 08:48:29;;;;;;;15.88;6.65;;;12.40;99.90;;;;;;4864315;29;20037;-66
2023/03/22 08:50:55;;;;;;;16.45;6.50;;;12.50;99.90;;;;;;4864258;29;20120;-67
2023/03/22 08:53:22;;;;;;;15.02;5.95;;;12.50;99.90;;;;;;4864188;29;20120;-67
2023/03/22 08:55:47;;;;;;;14.15;6.43;;;12.50;99.90;;;;;;4864150;29;20052;-66
2023/03/22 08:58:15;;;;;;;18.58;6.20;;;12.50;99.90;;;;;;4863864;29;20037;-66
2023/03/22 09:00:42;;;;;;;14.70;5.60;;;12.60;99.90;;;;;;4864168;29;20044;-67
2023/03/22 09:03:08;;;;;;;13.90;5.95;;;12.70;99.90;;;;;;4864125;29;20344;-67
2023/03/22 09:05:34;;;;;;;13.57;5.57;;;12.70;99.90;;;;;;4863827;29;20049;-66
2023/03/22 09:08:01;;;;;;;17.60;5.80;;;12.90;99.90;;;;;;4847476;29;20053;-66
2023/03/22 09:10:28;;;;;;;11.43;5.25;;;13.00;99.90;;;;;;4864375;29;20121;-68
2023/03/22 09:12:54;;;;;;;16.63;5.63;;;13.00;99.90;;;;;;4863645;29;20048;-66
2023/03/22 09:15:20;;;;;;;12.18;5.82;;;12.90;99.90;;;;;;4847367;29;20053;-67
2023/03/22 09:17:46;;;;;;;11.25;4.72;;;12.70;99.90;;;;;;4863987;29;20061;-66
2023/03/22 09:20:12;;;;;;;15.35;5.13;;;12.70;99.90;;;;;;4863689;29;20114;-66
2023/03/22 09:22:37;;;;;;;20.33;5.10;;;12.70;99.90;;;;;;4863952;29;20042;-69
2023/03/22 09:25:03;;;;;;;16.25;5.32;;;12.50;99.90;;;;;;4847381;29;20050;-67
2023/03/22 09:27:29;;;;;;;18.42;5.13;;;12.50;99.90;;;;;;4832157;29;20086;-66
2023/03/22 09:29:55;;;;;;;14.95;5.28;;;12.40;99.90;;;;;;4863932;29;20045;-66
2023/03/22 09:32:21;;;;;;;18.85;5.20;;;12.40;99.90;;;;;;4863908;29;20049;-67
2023/03/22 09:34:47;;;;;;;13.57;5.00;;;12.50;99.90;;;;;;4847360;29;20041;-67
2023/03/22 09:37:13;;;;;;;11.00;4.43;;;12.60;99.90;;;;;;4865939;29;20033;-66
2023/03/22 09:39:40;;;;;;;11.13;4.95;;;12.50;99.90;;;;;;4866981;29;20049;-66
2023/03/22 09:42:39;;;;;;;10.65;4.28;;;12.60;99.90;;;;;;4867268;29;20048;-66
2023/03/22 09:45:13;;;;;;;14.88;4.93;;;12.60;99.90;;;;;;4866712;29;20093;-68
2023/03/22 09:47:45;;;;;;;15.77;4.70;;;12.60;99.90;;;;;;4867256;29;20392;-66
2023/03/22 09:50:23;;;;;;;14.55;4.85;;;12.70;99.90;;;;;;4867176;29;20049;-66
2023/03/22 09:52:50;;;;;;;15.75;4.28;;;12.60;99.90;;;;;;4867111;29;20068;-66
2023/03/22 09:55:20;;;;;;;16.15;5.05;;;12.50;99.90;;;;;;4866973;29;20042;-66
2023/03/22 09:57:54;;;;;;;15.85;4.70;;;12.60;99.90;;;;;;4867289;29;20065;-66
2023/03/22 10:00:20;;;;;;;13.90;4.40;;;12.60;99.90;;;;;;4866985;29;20125;-67
2023/03/22 10:02:45;;;;;;;13.32;5.15;;;12.50;99.90;;;;;;4866917;29;20120;-66
2023/03/22 10:05:17;;;;;;;13.30;4.28;;;12.50;99.90;;;;;;4866888;29;20049;-67
2023/03/22 10:08:07;;;;;;;12.65;4.45;;;12.50;99.90;;;;;;4866840;29;20072;-66
2023/03/22 10:10:33;;;;;;;13.93;5.05;;;12.20;99.90;;;;;;4866804;29;20053;-67
2023/03/22 10:13:14;;;;;;;17.45;4.68;;;12.30;99.90;;;;;;4866390;29;20332;-66
2023/03/22 10:15:45;;;;;;;15.00;5.38;;;12.10;99.90;;;;;;4866690;29;20045;-67
2023/03/22 10:18:18;;;;;;;17.05;5.63;;;12.00;99.90;;;;;;4866468;29;20045;-66
2023/03/22 10:21:02;;;;;;;15.48;5.90;;;11.90;99.90;;;;;;4866396;29;20045;-67
2023/03/22 10:23:59;;;;;;;12.48;5.88;;;11.80;99.90;;;;;;4866328;29;20060;-67
2023/03/22 10:26:34;;;;;;;10.60;5.78;;;11.80;99.90;;;;;;4840818;29;20049;-68
2023/03/22 10:29:04;;;;;;;13.23;5.32;;;11.80;99.90;;;;;;4866492;29;20397;-66
2023/03/22 10:31:32;;;;;;;12.25;5.57;;;11.90;99.90;;;;;;4866156;29;20074;-67
2023/03/22 10:34:10;;;;;;;14.38;5.28;;;11.80;99.90;;;;;;4866334;29;20046;-67
2023/03/22 10:36:39;;;;;;;18.40;6.90;;;11.90;99.90;;;;;;4866062;29;20443;-68
2023/03/22 10:39:32;;;;;;;13.13;7.07;;;11.80;99.90;;;;;;4866306;29;20033;-66
2023/03/22 10:42:06;;;;;;;14.35;6.85;;;11.90;99.90;;;;;;4866305;29;20041;-66
2023/03/22 10:44:41;;;;;;;14.07;7.78;;;11.70;99.90;;;;;;4863565;29;20065;-67
2023/03/22 10:47:10;;;;;;;16.98;7.53;;;11.80;99.90;;;;;;4849457;29;20057;-67
2023/03/22 10:49:42;;;;;;;12.20;6.65;;;11.80;99.90;;;;;;4865829;29;20432;-67
2023/03/22 10:52:29;;;;;;;14.25;7.20;;;11.80;99.90;;;;;;4865789;29;20101;-67
2023/03/22 10:54:56;;;;;;;14.90;7.18;;;11.70;99.90;;;;;;4865895;29;20086;-67
2023/03/22 10:57:22;;;;;;;16.48;7.43;;;11.70;99.90;;;;;;4865930;29;20149;-67
2023/03/22 10:59:50;;;;;;;15.48;7.15;;;11.80;99.90;;;;;;4865690;29;20048;-67
2023/03/22 11:02:21;;;;;;;13.48;6.82;;;11.70;99.90;;;;;;4865630;29;20428;-67
2023/03/22 11:04:48;;;;;;;15.05;8.25;;;11.80;99.90;;;;;;4865835;29;20053;-67
2023/03/22 11:07:32;;;;;;;13.88;6.93;;;11.80;99.90;;;;;;4865781;29;20057;-67
2023/03/22 11:10:07;;;;;;;14.90;6.40;;;11.80;99.90;;;;;;4865730;29;20064;-67
2023/03/22 11:12:33;;;;;;;10.90;7.07;;;11.70;99.90;;;;;;4865357;29;20053;-66
2023/03/22 11:14:59;;;;;;;12.95;8.38;;;11.60;99.90;;;;;;4865595;29;20077;-66
2023/03/22 11:17:25;;;;;;;13.57;7.38;;;11.60;99.90;;;;;;4849117;29;20504;-71
2023/03/22 11:19:56;;;;;;;14.20;7.57;;;11.30;99.90;;;;;;4874465;29;20131;-71
2023/03/22 11:22:30;;;;;;;14.15;7.80;;;11.20;99.90;;;;;;4866578;29;20113;-66
2023/03/22 11:24:58;;;;;;;13.13;7.75;;;11.30;99.90;;;;;;4865536;29;20054;-67
2023/03/22 11:27:28;;;;;;;10.35;8.75;;;11.40;99.90;;;;;;4870185;29;20049;-67
2023/03/22 11:30:06;;;;;;;16.85;10.20;;;11.60;99.90;;;;;;4865587;29;20045;-67
2023/03/22 11:32:37;;;;;;;15.10;8.90;;;11.80;99.90;;;;;;4870301;29;20037;-69
2023/03/22 11:35:20;;;;;;;14.68;8.85;;;11.70;99.90;;;;;;4873994;29;20081;-68
2023/03/22 11:37:51;;;;;;;13.95;9.20;;;11.70;99.90;;;;;;4883657;29;20072;-68
2023/03/22 11:40:26;;;;;;;13.50;8.70;;;11.70;99.90;;;;;;4879872;29;20112;-70
2023/03/22 11:42:55;;;;;;;9.05;7.95;;;11.70;99.90;;;;;;4879466;29;20044;-68
2023/03/22 11:45:34;;;;;;;12.63;8.65;;;11.60;99.90;;;;;;4882608;29;20526;-67
2023/03/22 11:48:05;;;;;;;10.80;8.13;;;11.70;99.90;;;;;;4883724;29;20105;-67
2023/03/22 11:50:35;;;;;;;16.05;7.95;;;11.80;99.90;;;;;;4883644;29;20040;-68
2023/03/22 11:53:03;;;;;;;12.63;7.47;;;11.90;99.90;;;;;;4883621;29;20107;-67
2023/03/22 11:55:33;;;;;;;11.85;7.97;;;11.80;99.90;;;;;;4883129;29;20431;-67
2023/03/22 11:58:00;;;;;;;12.43;8.15;;;12.00;99.90;;;;;;4883467;29;20037;-69
2023/03/22 12:00:29;;;;;;;12.98;7.97;;;11.90;99.90;;;;;;4883106;29;20064;-67
2023/03/22 12:03:14;;;;;;;14.82;7.28;;;11.90;99.90;;;;;;4883165;29;20077;-66
2023/03/22 12:05:43;;;;;;;10.73;7.00;;;11.80;99.90;;;;;;4866988;29;20048;-66
2023/03/22 12:08:20;;;;;;;13.05;7.30;;;11.80;99.90;;;;;;4883317;29;20435;-67
2023/03/22 12:10:56;;;;;;;9.93;6.30;;;11.90;99.90;;;;;;4883335;29;20052;-67
2023/03/22 12:13:44;;;;;;;9.38;6.88;;;11.80;99.90;;;;;;4882903;29;20052;-67
2023/03/22 12:16:14;;;;;;;12.20;7.30;;;11.90;99.90;;;;;;4883166;29;20132;-67
2023/03/22 12:19:03;;;;;;;8.18;6.55;;;12.00;99.90;;;;;;4882845;29;20432;-67
2023/03/22 12:21:30;;;;;;;9.30;6.32;;;11.90;99.90;;;;;;4883211;29;20045;-67
2023/03/22 12:24:00;;;;;;;11.00;6.18;;;11.90;99.90;;;;;;4882769;29;20045;-67
2023/03/22 12:26:28;;;;;;;10.05;7.20;;;11.90;99.90;;;;;;4882783;29;20495;-67
2023/03/22 12:29:14;;;;;;;10.52;6.93;;;12.00;99.90;;;;;;4883015;29;20044;-67
2023/03/22 12:32:04;;;;;;;12.77;6.40;;;11.90;99.90;;;;;;4883134;29;20037;-67
2023/03/22 12:34:43;;;;;;;9.48;5.68;;;11.70;99.90;;;;;;4882684;29;20048;-68
2023/03/22 12:37:16;;;;;;;12.10;6.78;;;11.60;99.90;;;;;;4882719;29;20439;-65
2023/03/22 12:39:47;;;;;;;11.57;6.60;;;11.70;99.90;;;;;;4882922;29;20049;-66
2023/03/22 12:42:27;;;;;;;11.45;7.50;;;11.60;99.90;;;;;;4882960;29;20060;-65
2023/03/22 12:45:01;;;;;;;13.63;7.93;;;11.70;99.90;;;;;;4882530;29;20135;-65
2023/03/22 12:47:37;;;;;;;18.27;9.85;;;11.60;99.90;;;;;;4882938;29;20092;-65
2023/03/22 12:50:16;;;;;;;15.90;10.90;;;11.70;99.90;;;;;;4880206;29;20113;-66